createdAt,value
2014-10-09T00:00:26.218Z,17.79
2014-10-09T00:01:30.908Z,17.84
2014-10-09T00:02:35.614Z,17.77
2014-10-09T00:03:40.302Z,17.7
2014-10-09T00:04:44.992Z,17.77
2014-10-09T00:05:49.697Z,17.86
2014-10-09T00:06:54.403Z,17.81
2014-10-09T00:07:59.091Z,17.7
2014-10-09T00:09:03.797Z,17.6
2014-10-09T00:10:08.487Z,17.56
2014-10-09T00:11:13.191Z,17.55
2014-10-09T00:12:17.897Z,17.53
2014-10-09T00:13:21.898Z,17.58
2014-10-09T00:14:26.604Z,17.62
2014-10-09T00:15:31.310Z,17.64
2014-10-09T00:16:36.015Z,17.55
2014-10-09T00:17:40.704Z,17.42
2014-10-09T00:18:45.409Z,17.33
2014-10-09T00:19:50.396Z,17.2
2014-10-09T00:20:55.399Z,17.4
2014-10-09T00:22:00.087Z,17.38
2014-10-09T00:23:04.792Z,17.26
2014-10-09T00:24:09.498Z,17.4
2014-10-09T00:25:14.485Z,17.42
2014-10-09T00:26:19.486Z,17.25
2014-10-09T00:27:24.175Z,17.11
2014-10-09T00:28:28.881Z,17.1
2014-10-09T00:29:33.587Z,17.11
2014-10-09T00:30:38.292Z,17.25
2014-10-09T00:31:42.981Z,17.32
2014-10-09T00:32:47.686Z,17.3
2014-10-09T00:33:52.688Z,17.29
2014-10-09T00:34:57.393Z,17.34
2014-10-09T00:36:02.100Z,17.26
2014-10-09T00:37:06.805Z,17.24
2014-10-09T00:38:11.493Z,17.25
2014-10-09T00:39:16.215Z,17.24
2014-10-09T00:40:20.920Z,17.48
2014-10-09T00:41:25.624Z,17.45
2014-10-09T00:42:30.329Z,17.21
2014-10-09T00:43:35.035Z,17.3
2014-10-09T00:44:39.741Z,17.07
2014-10-09T00:45:44.446Z,16.82
2014-10-09T00:46:49.151Z,16.78
2014-10-09T00:47:53.840Z,16.72
2014-10-09T00:48:58.545Z,16.75
2014-10-09T00:50:03.547Z,16.76
2014-10-09T00:51:08.253Z,16.68
2014-10-09T00:52:12.959Z,16.78
2014-10-09T00:53:17.663Z,16.94
2014-10-09T00:54:22.352Z,17.1
2014-10-09T00:55:27.057Z,17.06
2014-10-09T00:56:31.764Z,16.98
2014-10-09T00:57:36.469Z,16.98
2014-10-09T00:58:41.173Z,17.02
2014-10-09T00:59:46.159Z,16.99
2014-10-09T01:00:50.865Z,17.09
2014-10-09T01:01:55.586Z,17.1
2014-10-09T01:03:00.291Z,17.08
2014-10-09T01:04:04.996Z,17.26
2014-10-09T01:05:09.701Z,17.37
2014-10-09T01:06:14.703Z,17.45
2014-10-09T01:07:19.394Z,17.44
2014-10-09T01:08:24.114Z,17.52
2014-10-09T01:09:28.820Z,17.54
2014-10-09T01:10:33.508Z,17.38
2014-10-09T01:11:38.213Z,17.32
2014-10-09T01:12:42.920Z,17.29
2014-10-09T01:13:47.609Z,17.47
2014-10-09T01:14:52.313Z,17.34
2014-10-09T01:15:57.004Z,17.37
2014-10-09T01:17:02.006Z,17.4
2014-10-09T01:18:06.711Z,17.38
2014-10-09T01:19:11.400Z,17.23
2014-10-09T01:20:16.090Z,17.33
2014-10-09T01:21:20.796Z,17.5
2014-10-09T01:22:25.500Z,17.64
2014-10-09T01:23:30.784Z,17.78
2014-10-09T01:24:35.474Z,17.44
2014-10-09T01:25:40.459Z,17.25
2014-10-09T01:26:45.164Z,17.12
2014-10-09T01:27:49.855Z,17.1
2014-10-09T01:28:54.857Z,17.07
2014-10-09T01:29:59.546Z,17.04
2014-10-09T01:31:04.251Z,17.02
2014-10-09T01:32:09.238Z,17.02
2014-10-09T01:33:13.927Z,17.05
2014-10-09T01:34:18.632Z,16.86
2014-10-09T01:35:23.339Z,16.92
2014-10-09T01:36:28.028Z,16.76
2014-10-09T01:37:32.732Z,16.79
2014-10-09T01:38:37.438Z,16.65
2014-10-09T01:39:42.128Z,16.58
2014-10-09T01:40:47.129Z,16.62
2014-10-09T01:41:51.818Z,16.69
2014-10-09T01:42:56.509Z,16.76
2014-10-09T01:44:01.214Z,16.78
2014-10-09T01:45:05.919Z,16.77
2014-10-09T01:46:10.609Z,16.84
2014-10-09T01:47:15.314Z,17.08
2014-10-09T01:48:20.300Z,17.24
2014-10-09T01:49:24.990Z,17.43
2014-10-09T01:50:29.710Z,17.57
2014-10-09T01:51:34.401Z,17.51
2014-10-09T01:52:39.386Z,16.96
2014-10-09T01:53:44.091Z,17.01
2014-10-09T01:54:48.782Z,17.08
2014-10-09T01:55:53.487Z,16.88
2014-10-09T01:56:58.191Z,16.88
2014-10-09T01:58:02.882Z,16.86
2014-10-09T01:59:07.587Z,17.02
2014-10-09T02:00:12.275Z,17.2
2014-10-09T02:01:16.966Z,17.05
2014-10-09T02:02:21.686Z,16.81
2014-10-09T02:03:26.392Z,16.79
2014-10-09T02:04:31.082Z,16.81
2014-10-09T02:05:35.786Z,16.87
2014-10-09T02:06:40.476Z,16.95
2014-10-09T02:07:45.182Z,17.05
2014-10-09T02:08:49.870Z,17.02
2014-10-09T02:09:54.576Z,16.96
2014-10-09T02:10:59.266Z,16.98
2014-10-09T02:12:04.267Z,17.12
2014-10-09T02:13:08.957Z,17.08
2014-10-09T02:14:13.663Z,17.03
2014-10-09T02:15:18.352Z,17.21
2014-10-09T02:16:23.057Z,17.24
2014-10-09T02:17:27.747Z,17.16
2014-10-09T02:18:32.452Z,16.92
2014-10-09T02:19:37.157Z,16.76
2014-10-09T02:20:41.846Z,16.74
2014-10-09T02:21:46.553Z,16.88
2014-10-09T02:22:51.242Z,16.98
2014-10-09T02:23:55.946Z,17.03
2014-10-09T02:25:00.652Z,17.08
2014-10-09T02:26:05.639Z,17.13
2014-10-09T02:27:10.358Z,17.2
2014-10-09T02:28:15.065Z,17.08
2014-10-09T02:29:19.613Z,17.04
2014-10-09T02:30:24.303Z,17.12
2014-10-09T02:31:29.008Z,16.82
2014-10-09T02:32:33.713Z,16.8
2014-10-09T02:33:38.403Z,16.82
2014-10-09T02:34:43.108Z,16.71
2014-10-09T02:35:47.813Z,16.73
2014-10-09T02:36:52.502Z,16.6
2014-10-09T02:37:57.505Z,16.6
2014-10-09T02:39:02.195Z,16.64
2014-10-09T02:40:06.916Z,16.75
2014-10-09T02:41:11.902Z,16.59
2014-10-09T02:42:16.592Z,16.44
2014-10-09T02:43:21.297Z,16.65
2014-10-09T02:44:26.001Z,16.59
2014-10-09T02:45:30.691Z,16.55
2014-10-09T02:46:35.396Z,16.53
2014-10-09T02:47:40.102Z,16.45
2014-10-09T02:48:44.808Z,16.44
2014-10-09T02:49:49.512Z,16.38
2014-10-09T02:50:54.217Z,16.63
2014-10-09T02:51:58.922Z,16.77
2014-10-09T02:53:03.627Z,16.78
2014-10-09T02:54:08.332Z,16.97
2014-10-09T02:55:13.038Z,17.13
2014-10-09T02:56:17.744Z,17.22
2014-10-09T02:57:22.449Z,17.01
2014-10-09T02:58:27.137Z,17.16
2014-10-09T02:59:32.139Z,17.34
2014-10-09T03:00:37.142Z,17.4
2014-10-09T03:01:41.832Z,17.36
2014-10-09T03:02:46.537Z,17.35
2014-10-09T03:03:51.242Z,17.34
2014-10-09T03:04:55.948Z,17.29
2014-10-09T03:06:00.652Z,17.28
2014-10-09T03:07:05.654Z,17.2
2014-10-09T03:08:10.359Z,17.31
2014-10-09T03:09:15.065Z,17.31
2014-10-09T03:10:19.771Z,17.34
2014-10-09T03:11:24.476Z,17.21
2014-10-09T03:12:29.164Z,17.16
2014-10-09T03:13:33.869Z,17.15
2014-10-09T03:14:38.575Z,17.25
2014-10-09T03:15:43.327Z,17.22
2014-10-09T03:16:48.033Z,17.28
2014-10-09T03:17:52.738Z,17.24
2014-10-09T03:18:57.443Z,17.26
2014-10-09T03:20:02.148Z,17.19
2014-10-09T03:21:06.853Z,17.16
2014-10-09T03:22:11.839Z,17.16
2014-10-09T03:23:16.545Z,17.08
2014-10-09T03:24:21.266Z,17.05
2014-10-09T03:25:25.971Z,17.04
2014-10-09T03:26:30.677Z,17.05
2014-10-09T03:27:35.366Z,17.02
2014-10-09T03:28:40.071Z,16.97
2014-10-09T03:29:44.761Z,16.97
2014-10-09T03:30:49.747Z,16.94
2014-10-09T03:31:54.452Z,17.06
2014-10-09T03:32:59.142Z,17.04
2014-10-09T03:34:03.831Z,17.12
2014-10-09T03:35:08.833Z,17.38
2014-10-09T03:36:13.523Z,17.43
2014-10-09T03:37:18.229Z,17.3
2014-10-09T03:38:22.917Z,17.22
2014-10-09T03:39:27.920Z,17.14
2014-10-09T03:40:31.921Z,17.24
2014-10-09T03:41:36.909Z,17.35
2014-10-09T03:42:41.613Z,17.25
2014-10-09T03:43:46.308Z,17.15
2014-10-09T03:44:51.043Z,17.24
2014-10-09T03:45:55.793Z,17.36
2014-10-09T03:47:00.542Z,17.26
2014-10-09T03:48:05.277Z,17.27
2014-10-09T03:49:10.014Z,17.49
2014-10-09T03:50:14.032Z,17.33
2014-10-09T03:51:18.049Z,17.26
2014-10-09T03:52:22.754Z,17.33
2014-10-09T03:53:27.773Z,17.23
2014-10-09T03:54:32.470Z,17.21
2014-10-09T03:55:37.181Z,17.18
2014-10-09T03:56:41.892Z,17.09
2014-10-09T03:57:46.587Z,17.08
2014-10-09T03:58:51.298Z,17.12
2014-10-09T03:59:55.990Z,17.16
2014-10-09T04:01:00.010Z,17.21
2014-10-09T04:02:04.700Z,17.12
2014-10-09T04:03:09.393Z,17.1
2014-10-09T04:04:14.099Z,17.08
2014-10-09T04:05:18.788Z,17.08
2014-10-09T04:06:23.791Z,17.11
2014-10-09T04:07:28.481Z,17.15
2014-10-09T04:08:33.187Z,17.12
2014-10-09T04:09:37.892Z,17.09
2014-10-09T04:10:42.879Z,17.08
2014-10-09T04:11:47.586Z,17.16
2014-10-09T04:12:52.572Z,17.15
2014-10-09T04:13:57.277Z,17.15
2014-10-09T04:15:01.967Z,17.15
2014-10-09T04:16:06.954Z,17.12
2014-10-09T04:17:11.658Z,17.12
2014-10-09T04:18:16.348Z,17.16
2014-10-09T04:19:21.054Z,17.17
2014-10-09T04:20:26.040Z,17.08
2014-10-09T04:21:30.744Z,17.05
2014-10-09T04:22:35.435Z,17.02
2014-10-09T04:23:40.437Z,17
2014-10-09T04:24:45.126Z,16.91
2014-10-09T04:25:49.831Z,17.02
2014-10-09T04:26:54.521Z,17.04
2014-10-09T04:27:59.507Z,17.08
2014-10-09T04:29:04.212Z,17.11
2014-10-09T04:30:08.917Z,17.03
2014-10-09T04:31:13.608Z,17.08
2014-10-09T04:32:18.313Z,17.03
2014-10-09T04:33:23.298Z,17.04
2014-10-09T04:34:28.005Z,16.98
2014-10-09T04:35:32.694Z,16.96
2014-10-09T04:36:37.680Z,16.94
2014-10-09T04:37:42.386Z,16.94
2014-10-09T04:38:47.075Z,16.9
2014-10-09T04:39:51.780Z,16.96
2014-10-09T04:40:56.767Z,16.96
2014-10-09T04:42:01.457Z,16.74
2014-10-09T04:43:06.161Z,16.88
2014-10-09T04:44:10.163Z,16.59
2014-10-09T04:45:14.181Z,16.34
2014-10-09T04:46:18.886Z,16.26
2014-10-09T04:47:23.575Z,16.28
2014-10-09T04:48:28.578Z,16.29
2014-10-09T04:49:33.565Z,16.24
2014-10-09T04:50:38.270Z,16.16
2014-10-09T04:51:42.959Z,16.08
2014-10-09T04:52:47.665Z,16.11
2014-10-09T04:53:52.354Z,16.14
2014-10-09T04:54:57.059Z,16.14
2014-10-09T04:56:01.764Z,16.18
2014-10-09T04:57:06.454Z,16.18
2014-10-09T04:58:11.456Z,16.49
2014-10-09T04:59:16.145Z,16.28
2014-10-09T05:00:21.147Z,16.18
2014-10-09T05:01:25.838Z,16.23
2014-10-09T05:02:30.543Z,15.71
2014-10-09T05:03:35.544Z,15.89
2014-10-09T05:04:40.249Z,15.89
2014-10-09T05:05:45.235Z,15.8
2014-10-09T05:06:50.081Z,15.93
2014-10-09T05:07:54.787Z,15.98
2014-10-09T05:08:59.508Z,15.93
2014-10-09T05:10:04.494Z,15.99
2014-10-09T05:11:09.200Z,16.1
2014-10-09T05:12:13.906Z,16.06
2014-10-09T05:13:18.610Z,15.91
2014-10-09T05:14:23.612Z,15.81
2014-10-09T05:15:28.301Z,15.84
2014-10-09T05:16:33.006Z,15.85
2014-10-09T05:17:37.712Z,15.89
2014-10-09T05:18:42.715Z,16.05
2014-10-09T05:19:47.420Z,15.93
2014-10-09T05:20:52.124Z,15.72
2014-10-09T05:21:56.813Z,16.06
2014-10-09T05:23:01.519Z,16.18
2014-10-09T05:24:06.521Z,16.08
2014-10-09T05:25:11.508Z,16.17
2014-10-09T05:26:16.213Z,15.89
2014-10-09T05:27:21.215Z,16.04
2014-10-09T05:28:25.921Z,15.96
2014-10-09T05:29:30.625Z,15.93
2014-10-09T05:30:35.330Z,15.96
2014-10-09T05:31:40.052Z,15.78
2014-10-09T05:32:44.756Z,15.94
2014-10-09T05:33:49.447Z,15.87
2014-10-09T05:34:54.152Z,15.91
2014-10-09T05:35:58.857Z,15.9
2014-10-09T05:37:03.562Z,15.88
2014-10-09T05:38:08.252Z,16
2014-10-09T05:39:12.972Z,16
2014-10-09T05:40:17.662Z,15.91
2014-10-09T05:41:22.351Z,16.48
2014-10-09T05:42:27.338Z,16.64
2014-10-09T05:43:32.043Z,16.39
2014-10-09T05:44:37.029Z,16.27
2014-10-09T05:45:41.031Z,16.34
2014-10-09T05:46:45.736Z,16.63
2014-10-09T05:47:50.724Z,16.78
2014-10-09T05:48:55.412Z,16.45
2014-10-09T05:50:00.117Z,16.26
2014-10-09T05:51:04.808Z,16.23
2014-10-09T05:52:09.513Z,16.52
2014-10-09T05:53:14.499Z,16.92
2014-10-09T05:54:19.189Z,17.09
2014-10-09T05:55:24.191Z,16.77
2014-10-09T05:56:28.880Z,16.54
2014-10-09T05:57:33.585Z,16.38
2014-10-09T05:58:38.276Z,16.31
2014-10-09T05:59:42.980Z,16.4
2014-10-09T06:00:47.670Z,16.63
2014-10-09T06:01:52.657Z,16.74
2014-10-09T06:02:57.362Z,16.8
2014-10-09T06:04:02.052Z,17.06
2014-10-09T06:05:06.757Z,17.28
2014-10-09T06:06:11.445Z,17.34
2014-10-09T06:07:16.433Z,17.08
2014-10-09T06:08:21.435Z,17.05
2014-10-09T06:09:26.421Z,17.21
2014-10-09T06:10:31.126Z,17
2014-10-09T06:11:35.816Z,16.88
2014-10-09T06:12:40.802Z,16.74
2014-10-09T06:13:45.491Z,16.89
2014-10-09T06:14:50.494Z,16.74
2014-10-09T06:15:54.495Z,16.64
2014-10-09T06:16:59.201Z,16.64
2014-10-09T06:18:03.891Z,16.68
2014-10-09T06:19:08.595Z,16.86
2014-10-09T06:20:13.286Z,16.94
2014-10-09T06:21:17.991Z,17.09
2014-10-09T06:22:22.695Z,17.1
2014-10-09T06:23:27.385Z,17.02
2014-10-09T06:24:32.091Z,17.08
2014-10-09T06:25:37.077Z,17.42
2014-10-09T06:26:41.783Z,17.87
2014-10-09T06:27:46.487Z,18.86
2014-10-09T06:28:51.177Z,20.46
2014-10-09T06:29:55.882Z,22
2014-10-09T06:31:00.571Z,23.11
2014-10-09T06:32:05.277Z,23.88
2014-10-09T06:33:09.982Z,24.49
2014-10-09T06:34:14.688Z,24.88
2014-10-09T06:35:19.376Z,25.58
2014-10-09T06:36:23.394Z,26.31
2014-10-09T06:37:28.083Z,27
2014-10-09T06:38:33.086Z,27.14
2014-10-09T06:39:37.791Z,27.36
2014-10-09T06:40:42.497Z,27.45
2014-10-09T06:41:47.202Z,27.94
2014-10-09T06:42:51.907Z,28.41
2014-10-09T06:43:56.612Z,27.85
2014-10-09T06:45:01.333Z,28.23
2014-10-09T06:46:06.038Z,28.83
2014-10-09T06:47:10.727Z,28.32
2014-10-09T06:48:15.729Z,28.44
2014-10-09T06:49:20.434Z,28.19
2014-10-09T06:50:25.436Z,28.94
2014-10-09T06:51:30.439Z,29.16
2014-10-09T06:52:35.441Z,29.54
2014-10-09T06:53:40.161Z,30.55
2014-10-09T06:54:44.883Z,30.6
2014-10-09T06:55:49.885Z,30.54
2014-10-09T06:56:54.887Z,30.57
2014-10-09T06:57:59.592Z,30.07
2014-10-09T06:59:04.594Z,29.95
2014-10-09T07:00:08.612Z,29.24
2014-10-09T07:01:13.317Z,27.36
2014-10-09T07:02:18.021Z,25.82
2014-10-09T07:03:22.728Z,24.86
2014-10-09T07:04:26.746Z,24.54
2014-10-09T07:05:31.451Z,24.76
2014-10-09T07:06:36.156Z,24.35
2014-10-09T07:07:40.877Z,24.45
2014-10-09T07:08:45.879Z,24.17
2014-10-09T07:09:50.583Z,23.54
2014-10-09T07:10:55.305Z,23.59
2014-10-09T07:12:00.025Z,23.3
2014-10-09T07:13:04.730Z,23.01
2014-10-09T07:14:09.436Z,22.95
2014-10-09T07:15:14.156Z,22.7
2014-10-09T07:16:18.862Z,22.95
2014-10-09T07:17:23.864Z,22.57
2014-10-09T07:18:28.569Z,22.18
2014-10-09T07:19:33.275Z,22.16
2014-10-09T07:20:37.980Z,22.16
2014-10-09T07:21:42.981Z,22.2
2014-10-09T07:22:47.670Z,22.31
2014-10-09T07:23:52.376Z,22.48
2014-10-09T07:24:57.082Z,22.6
2014-10-09T07:26:01.787Z,22.99
2014-10-09T07:27:06.790Z,22.91
2014-10-09T07:28:11.478Z,22.73
2014-10-09T07:29:16.480Z,22.51
2014-10-09T07:30:21.185Z,22.51
2014-10-09T07:31:25.891Z,22.76
2014-10-09T07:32:30.581Z,22.38
2014-10-09T07:33:35.286Z,22.64
2014-10-09T07:34:39.990Z,22.85
2014-10-09T07:35:44.696Z,22.83
2014-10-09T07:36:49.386Z,22.55
2014-10-09T07:37:54.091Z,22.32
2014-10-09T07:38:58.796Z,21.98
2014-10-09T07:40:03.486Z,21.91
2014-10-09T07:41:08.191Z,21.53
2014-10-09T07:42:12.896Z,21.4
2014-10-09T07:43:17.585Z,21.14
2014-10-09T07:44:22.290Z,21.3
2014-10-09T07:45:26.996Z,21.42
2014-10-09T07:46:31.716Z,21.1
2014-10-09T07:47:36.422Z,20.34
2014-10-09T07:48:41.112Z,20.62
2014-10-09T07:49:45.817Z,21.14
2014-10-09T07:50:50.802Z,20.61
2014-10-09T07:51:55.509Z,20.84
2014-10-09T07:53:00.214Z,21.08
2014-10-09T07:54:05.200Z,21.1
2014-10-09T07:55:09.905Z,21.56
2014-10-09T07:56:14.595Z,21.91
2014-10-09T07:57:19.300Z,21.8
2014-10-09T07:58:24.005Z,21.85
2014-10-09T07:59:28.694Z,21.48
2014-10-09T08:00:33.696Z,21.38
2014-10-09T08:01:38.403Z,21.48
2014-10-09T08:02:43.092Z,21.99
2014-10-09T08:03:47.796Z,21.92
2014-10-09T08:04:52.784Z,22.04
2014-10-09T08:05:57.489Z,21.84
2014-10-09T08:07:02.194Z,21.9
2014-10-09T08:08:06.898Z,21.89
2014-10-09T08:09:11.588Z,21.63
2014-10-09T08:10:16.294Z,21.74
2014-10-09T08:11:20.999Z,21.88
2014-10-09T08:12:25.704Z,22.05
2014-10-09T08:13:30.409Z,21.81
2014-10-09T08:14:35.115Z,21.78
2014-10-09T08:15:40.116Z,21.77
2014-10-09T08:16:45.102Z,21.7
2014-10-09T08:17:49.808Z,21.62
2014-10-09T08:18:54.795Z,21.74
2014-10-09T08:19:59.500Z,21.81
2014-10-09T08:21:04.204Z,21.8
2014-10-09T08:22:08.909Z,21.83
2014-10-09T08:23:13.615Z,22.08
2014-10-09T08:24:18.617Z,22.29
2014-10-09T08:25:23.323Z,22.24
2014-10-09T08:26:28.028Z,22.62
2014-10-09T08:27:32.717Z,22.75
2014-10-09T08:28:37.422Z,22.76
2014-10-09T08:29:42.143Z,23.06
2014-10-09T08:30:46.848Z,22.51
2014-10-09T08:31:51.570Z,22.52
2014-10-09T08:32:56.291Z,22.67
2014-10-09T08:34:00.995Z,22.61
2014-10-09T08:35:05.700Z,22.52
2014-10-09T08:36:10.405Z,22.35
2014-10-09T08:37:15.110Z,22.36
2014-10-09T08:38:19.815Z,22.51
2014-10-09T08:39:24.520Z,22.72
2014-10-09T08:40:29.508Z,22.51
2014-10-09T08:41:34.196Z,22.36
2014-10-09T08:42:38.902Z,22.58
2014-10-09T08:43:43.889Z,22.98
2014-10-09T08:44:48.891Z,22.89
2014-10-09T08:45:53.597Z,23.13
2014-10-09T08:46:58.598Z,23.28
2014-10-09T08:48:03.287Z,23.33
2014-10-09T08:49:07.993Z,23.31
2014-10-09T08:50:12.699Z,23.15
2014-10-09T08:51:17.404Z,23.49
2014-10-09T08:52:22.109Z,23.55
2014-10-09T08:53:26.814Z,23.91
2014-10-09T08:54:31.816Z,23.63
2014-10-09T08:55:36.802Z,23.6
2014-10-09T08:56:41.508Z,23.63
2014-10-09T08:57:46.228Z,23.82
2014-10-09T08:58:50.933Z,23.8
2014-10-09T08:59:55.935Z,23.67
2014-10-09T09:01:00.641Z,23.8
2014-10-09T09:02:05.346Z,23.85
2014-10-09T09:03:10.052Z,24.14
2014-10-09T09:04:14.757Z,24.4
2014-10-09T09:05:19.759Z,23.83
2014-10-09T09:06:24.480Z,23.66
2014-10-09T09:07:29.185Z,23.7
2014-10-09T09:08:33.890Z,24.38
2014-10-09T09:09:38.595Z,24.82
2014-10-09T09:10:43.316Z,24.36
2014-10-09T09:11:48.021Z,24.2
2014-10-09T09:12:52.727Z,23.98
2014-10-09T09:13:57.447Z,24.14
2014-10-09T09:15:02.153Z,24.23
2014-10-09T09:16:06.858Z,24.34
2014-10-09T09:17:11.578Z,24.38
2014-10-09T09:18:16.564Z,24.58
2014-10-09T09:19:21.285Z,24.68
2014-10-09T09:20:26.007Z,24.5
2014-10-09T09:21:30.712Z,24.1
2014-10-09T09:22:35.417Z,24.1
2014-10-09T09:23:40.419Z,24.32
2014-10-09T09:24:45.140Z,24.33
2014-10-09T09:25:50.142Z,24.32
2014-10-09T09:26:54.847Z,24.28
2014-10-09T09:27:59.552Z,24.6
2014-10-09T09:29:04.288Z,24.64
2014-10-09T09:30:08.993Z,24.72
2014-10-09T09:31:13.699Z,24.86
2014-10-09T09:32:18.420Z,24.62
2014-10-09T09:33:23.125Z,24.74
2014-10-09T09:34:27.831Z,24.65
2014-10-09T09:35:32.550Z,24.9
2014-10-09T09:36:37.256Z,24.63
2014-10-09T09:37:42.243Z,24.53
2014-10-09T09:38:46.948Z,24.3
2014-10-09T09:39:51.247Z,24.45
2014-10-09T09:40:55.952Z,24.4
2014-10-09T09:42:00.657Z,24.3
2014-10-09T09:43:05.347Z,24.47
2014-10-09T09:44:10.052Z,24.61
2014-10-09T09:45:14.757Z,24.63
2014-10-09T09:46:19.463Z,24.74
2014-10-09T09:47:24.168Z,24.64
2014-10-09T09:48:29.450Z,24.88
2014-10-09T09:49:34.453Z,25.24
2014-10-09T09:50:39.158Z,25.37
2014-10-09T09:51:44.145Z,25.15
2014-10-09T09:52:49.130Z,25.08
2014-10-09T09:53:53.836Z,25.16
2014-10-09T09:54:58.541Z,24.96
2014-10-09T09:56:03.559Z,25.22
2014-10-09T09:57:08.264Z,25.53
2014-10-09T09:58:12.969Z,25.46
2014-10-09T09:59:17.674Z,25.37
2014-10-09T10:00:22.380Z,25.56
2014-10-09T10:01:27.367Z,25.56
2014-10-09T10:02:32.072Z,25.52
2014-10-09T10:03:37.090Z,25.56
2014-10-09T10:04:41.794Z,25.5
2014-10-09T10:05:46.483Z,25.84
2014-10-09T10:06:51.205Z,25.28
2014-10-09T10:07:56.207Z,25.45
2014-10-09T10:09:01.193Z,25.81
2014-10-09T10:10:05.899Z,26.07
2014-10-09T10:11:10.901Z,25.72
2014-10-09T10:12:15.887Z,25.88
2014-10-09T10:13:20.593Z,26.35
2014-10-09T10:14:25.297Z,26.47
2014-10-09T10:15:30.284Z,26.49
2014-10-09T10:16:34.990Z,26.3
2014-10-09T10:17:39.695Z,26.37
2014-10-09T10:18:44.399Z,26.79
2014-10-09T10:19:49.104Z,26.65
2014-10-09T10:20:53.795Z,26.38
2014-10-09T10:21:58.797Z,26.5
2014-10-09T10:23:03.502Z,26.61
2014-10-09T10:24:08.504Z,26.48
2014-10-09T10:25:13.209Z,26.42
2014-10-09T10:26:17.914Z,26.43
2014-10-09T10:27:22.619Z,26.37
2014-10-09T10:28:27.621Z,26.32
2014-10-09T10:29:32.326Z,26.39
2014-10-09T10:30:37.031Z,26.63
2014-10-09T10:31:41.737Z,26.72
2014-10-09T10:32:46.724Z,26.47
2014-10-09T10:33:51.429Z,26.82
2014-10-09T10:34:56.134Z,26.62
2014-10-09T10:36:00.838Z,26.8
2014-10-09T10:37:05.544Z,27.25
2014-10-09T10:38:10.546Z,27.13
2014-10-09T10:39:15.283Z,27.11
2014-10-09T10:40:19.988Z,27.07
2014-10-09T10:41:24.709Z,27.09
2014-10-09T10:42:29.712Z,27.42
2014-10-09T10:43:34.416Z,26.9
2014-10-09T10:44:39.122Z,27.11
2014-10-09T10:45:43.842Z,27.28
2014-10-09T10:46:48.563Z,27.12
2014-10-09T10:47:53.300Z,26.8
2014-10-09T10:48:58.302Z,26.82
2014-10-09T10:50:03.006Z,26.79
2014-10-09T10:51:07.992Z,26.58
2014-10-09T10:52:12.698Z,26.73
2014-10-09T10:53:17.419Z,26.82
2014-10-09T10:54:22.124Z,26.87
2014-10-09T10:55:26.829Z,26.82
2014-10-09T10:56:31.550Z,26.94
2014-10-09T10:57:36.255Z,26.77
2014-10-09T10:58:40.976Z,26.71
2014-10-09T10:59:45.682Z,26.97
2014-10-09T11:00:50.386Z,26.92
2014-10-09T11:01:55.107Z,26.83
2014-10-09T11:03:00.109Z,27.1
2014-10-09T11:04:04.815Z,26.83
2014-10-09T11:05:09.519Z,26.9
2014-10-09T11:06:14.240Z,27.14
2014-10-09T11:07:18.946Z,27.5
2014-10-09T11:08:23.964Z,27.37
2014-10-09T11:09:28.684Z,27.3
2014-10-09T11:10:33.390Z,27.15
2014-10-09T11:11:38.095Z,27.33
2014-10-09T11:12:42.815Z,27.23
2014-10-09T11:13:47.536Z,27.24
2014-10-09T11:14:52.257Z,27.29
2014-10-09T11:15:56.963Z,27.28
2014-10-09T11:17:01.699Z,27.12
2014-10-09T11:18:06.420Z,27.05
2014-10-09T11:19:11.407Z,27.18
2014-10-09T11:20:16.112Z,27.38
2014-10-09T11:21:21.114Z,27.43
2014-10-09T11:22:26.100Z,27.4
2014-10-09T11:23:30.805Z,27.29
2014-10-09T11:24:35.510Z,27.63
2014-10-09T11:25:40.215Z,27.56
2014-10-09T11:26:44.921Z,27.78
2014-10-09T11:27:49.626Z,27.78
2014-10-09T11:28:54.613Z,27.57
2014-10-09T11:29:59.615Z,27.84
2014-10-09T11:31:04.319Z,28.09
2014-10-09T11:32:09.306Z,28.16
2014-10-09T11:33:14.012Z,28.14
2014-10-09T11:34:18.717Z,27.96
2014-10-09T11:35:23.438Z,28.03
2014-10-09T11:36:28.143Z,28.02
2014-10-09T11:37:33.129Z,28.34
2014-10-09T11:38:38.131Z,27.97
2014-10-09T11:39:43.133Z,27.54
2014-10-09T11:40:48.119Z,27.65
2014-10-09T11:41:52.825Z,27.81
2014-10-09T11:42:57.530Z,28.04
2014-10-09T11:44:02.236Z,27.99
2014-10-09T11:45:06.940Z,27.86
2014-10-09T11:46:11.662Z,28.17
2014-10-09T11:47:16.664Z,28.32
2014-10-09T11:48:21.368Z,28.22
2014-10-09T11:49:26.057Z,27.96
2014-10-09T11:50:31.059Z,28.24
2014-10-09T11:51:36.078Z,28.08
2014-10-09T11:52:40.767Z,27.95
2014-10-09T11:53:45.473Z,28.02
2014-10-09T11:54:50.475Z,27.9
2014-10-09T11:55:55.462Z,28.17
2014-10-09T11:57:00.183Z,28.33
2014-10-09T11:58:05.169Z,28.1
2014-10-09T11:59:09.873Z,27.85
2014-10-09T12:00:14.875Z,28.26
2014-10-09T12:01:19.581Z,28.2
2014-10-09T12:02:24.286Z,28.37
2014-10-09T12:03:28.976Z,28.55
2014-10-09T12:04:33.681Z,28.25
2014-10-09T12:05:38.385Z,28.52
2014-10-09T12:06:43.091Z,28.55
2014-10-09T12:07:47.796Z,28.32
2014-10-09T12:08:52.502Z,28.38
2014-10-09T12:09:57.207Z,28.62
2014-10-09T12:11:02.210Z,28.72
2014-10-09T12:12:06.898Z,28.46
2014-10-09T12:13:11.603Z,28.28
2014-10-09T12:14:16.308Z,28.33
2014-10-09T12:15:21.014Z,28.33
2014-10-09T12:16:25.720Z,28.65
2014-10-09T12:17:30.425Z,28.47
2014-10-09T12:18:35.130Z,28.28
2014-10-09T12:19:39.835Z,28.28
2014-10-09T12:20:44.539Z,28.3
2014-10-09T12:21:49.245Z,28.23
2014-10-09T12:22:54.247Z,28.14
2014-10-09T12:23:58.952Z,28.18
2014-10-09T12:25:03.658Z,28.12
2014-10-09T12:26:08.660Z,28.06
2014-10-09T12:27:13.365Z,27.98
2014-10-09T12:28:18.071Z,28.3
2014-10-09T12:29:22.792Z,28.42
2014-10-09T12:30:27.512Z,28.62
2014-10-09T12:31:32.216Z,28.83
2014-10-09T12:32:36.923Z,28.78
2014-10-09T12:33:41.643Z,28.58
2014-10-09T12:34:46.348Z,28.17
2014-10-09T12:35:51.054Z,28.47
2014-10-09T12:36:55.774Z,28.67
2014-10-09T12:38:00.479Z,28.53
2014-10-09T12:39:05.185Z,28.33
2014-10-09T12:40:10.187Z,28.71
2014-10-09T12:41:14.907Z,28.69
2014-10-09T12:42:19.206Z,28.8
2014-10-09T12:43:23.927Z,28.54
2014-10-09T12:44:28.633Z,28.47
2014-10-09T12:45:33.635Z,28.4
2014-10-09T12:46:38.339Z,28.81
2014-10-09T12:47:43.060Z,28.92
2014-10-09T12:48:47.766Z,28.75
2014-10-09T12:49:52.474Z,28.66
2014-10-09T12:50:57.221Z,28.97
2014-10-09T12:52:01.984Z,29.15
2014-10-09T12:53:06.731Z,29.25
2014-10-09T12:54:11.494Z,28.95
2014-10-09T12:55:16.526Z,29.07
2014-10-09T12:56:21.262Z,29.31
2014-10-09T12:57:25.982Z,29.36
2014-10-09T12:58:30.702Z,29.25
2014-10-09T12:59:35.438Z,29.37
2014-10-09T13:00:40.149Z,29.31
2014-10-09T13:01:44.860Z,29.3
2014-10-09T13:02:49.571Z,29.22
2014-10-09T13:03:54.281Z,29.28
2014-10-09T13:04:59.023Z,29.55
2014-10-09T13:06:03.730Z,29.49
2014-10-09T13:07:08.437Z,29.55
2014-10-09T13:08:13.144Z,29.24
2014-10-09T13:09:17.836Z,29.09
2014-10-09T13:10:22.543Z,29.26
2014-10-09T13:11:27.280Z,29.46
2014-10-09T13:12:31.986Z,29.42
2014-10-09T13:13:36.691Z,29.33
2014-10-09T13:14:41.397Z,29.37
2014-10-09T13:15:46.103Z,29.19
2014-10-09T13:16:51.105Z,28.99
2014-10-09T13:17:55.811Z,29.06
2014-10-09T13:19:00.516Z,28.96
2014-10-09T13:20:05.503Z,28.81
2014-10-09T13:21:10.207Z,28.74
2014-10-09T13:22:15.209Z,28.57
2014-10-09T13:23:19.914Z,28.91
2014-10-09T13:24:24.636Z,29.19
2014-10-09T13:25:29.340Z,29.28
2014-10-09T13:26:34.045Z,29.55
2014-10-09T13:27:39.047Z,29.39
2014-10-09T13:28:43.799Z,29.47
2014-10-09T13:29:48.505Z,29.23
2014-10-09T13:30:53.211Z,29.1
2014-10-09T13:31:57.916Z,29.07
2014-10-09T13:33:02.621Z,29.19
2014-10-09T13:34:07.326Z,28.75
2014-10-09T13:35:12.032Z,28.78
2014-10-09T13:36:16.736Z,28.98
2014-10-09T13:37:21.738Z,29.17
2014-10-09T13:38:26.443Z,28.92
2014-10-09T13:39:31.148Z,29.02
2014-10-09T13:40:35.855Z,28.96
2014-10-09T13:41:40.950Z,28.87
2014-10-09T13:42:45.655Z,28.97
2014-10-09T13:43:50.642Z,28.69
2014-10-09T13:44:55.347Z,28.9
2014-10-09T13:46:00.052Z,29.06
2014-10-09T13:47:04.757Z,28.82
2014-10-09T13:48:09.462Z,29.1
2014-10-09T13:49:14.167Z,29.42
2014-10-09T13:50:18.873Z,29.13
2014-10-09T13:51:23.876Z,29.04
2014-10-09T13:52:28.862Z,29.19
2014-10-09T13:53:33.567Z,29.45
2014-10-09T13:54:38.271Z,29.29
2014-10-09T13:55:43.273Z,29.01
2014-10-09T13:56:47.978Z,29.07